sensor_id;sensor_type;location;lat;lon;timestamp;P1;durP1;ratioP1;P2;durP2;ratioP2
16478;SDS011;8350;52.316;10.530;2023-07-20T00:02:10;3.05;;;1.02;;
16478;SDS011;8350;52.316;10.530;2023-07-20T00:04:38;2.10;;;1.20;;
16478;SDS011;8350;52.316;10.530;2023-07-20T00:07:07;1.35;;;1.25;;
16478;SDS011;8350;52.316;10.530;2023-07-20T00:09:36;1.45;;;1.35;;
16478;SDS011;8350;52.316;10.530;2023-07-20T00:12:03;1.27;;;1.17;;
16478;SDS011;8350;52.316;10.530;2023-07-20T00:14:30;2.25;;;1.25;;
16478;SDS011;8350;52.316;10.530;2023-07-20T00:16:58;1.40;;;1.10;;
16478;SDS011;8350;52.316;10.530;2023-07-20T00:19:25;1.40;;;1.23;;
16478;SDS011;8350;52.316;10.530;2023-07-20T00:21:53;1.10;;;1.00;;
16478;SDS011;8350;52.316;10.530;2023-07-20T00:24:20;1.63;;;1.20;;
16478;SDS011;8350;52.316;10.530;2023-07-20T00:26:48;0.90;;;0.90;;
16478;SDS011;8350;52.316;10.530;2023-07-20T00:29:15;1.40;;;1.00;;
16478;SDS011;8350;52.316;10.530;2023-07-20T00:31:42;1.45;;;0.88;;
16478;SDS011;8350;52.316;10.530;2023-07-20T00:34:09;1.88;;;1.52;;
16478;SDS011;8350;52.316;10.530;2023-07-20T00:36:36;1.30;;;1.20;;
16478;SDS011;8350;52.316;10.530;2023-07-20T00:39:03;1.33;;;0.93;;
16478;SDS011;8350;52.316;10.530;2023-07-20T00:41:31;1.30;;;1.20;;
16478;SDS011;8350;52.316;10.530;2023-07-20T00:43:59;1.30;;;1.10;;
16478;SDS011;8350;52.316;10.530;2023-07-20T00:46:26;1.75;;;1.17;;
16478;SDS011;8350;52.316;10.530;2023-07-20T00:48:53;1.27;;;1.17;;
16478;SDS011;8350;52.316;10.530;2023-07-20T00:51:21;1.90;;;1.30;;
16478;SDS011;8350;52.316;10.530;2023-07-20T00:53:50;1.10;;;1.00;;
16478;SDS011;8350;52.316;10.530;2023-07-20T00:56:17;1.50;;;1.40;;
16478;SDS011;8350;52.316;10.530;2023-07-20T00:58:44;1.50;;;1.40;;
16478;SDS011;8350;52.316;10.530;2023-07-20T01:01:13;1.65;;;1.25;;
16478;SDS011;8350;52.316;10.530;2023-07-20T01:03:43;2.65;;;1.48;;
16478;SDS011;8350;52.316;10.530;2023-07-20T01:06:12;1.90;;;1.40;;
16478;SDS011;8350;52.316;10.530;2023-07-20T01:08:51;1.30;;;1.20;;
16478;SDS011;8350;52.316;10.530;2023-07-20T01:11:28;1.25;;;1.05;;
16478;SDS011;8350;52.316;10.530;2023-07-20T01:14:03;1.20;;;1.10;;
16478;SDS011;8350;52.316;10.530;2023-07-20T01:16:33;1.40;;;1.30;;
16478;SDS011;8350;52.316;10.530;2023-07-20T01:19:00;1.40;;;1.30;;
16478;SDS011;8350;52.316;10.530;2023-07-20T01:21:29;1.30;;;1.20;;
16478;SDS011;8350;52.316;10.530;2023-07-20T01:30:19;1.60;;;1.50;;
16478;SDS011;8350;52.316;10.530;2023-07-20T01:33:03;1.40;;;1.30;;
16478;SDS011;8350;52.316;10.530;2023-07-20T01:35:33;1.88;;;1.70;;
16478;SDS011;8350;52.316;10.530;2023-07-20T01:38:03;1.85;;;1.60;;
16478;SDS011;8350;52.316;10.530;2023-07-20T01:40:31;1.40;;;1.35;;
16478;SDS011;8350;52.316;10.530;2023-07-20T01:42:58;1.60;;;1.50;;
16478;SDS011;8350;52.316;10.530;2023-07-20T01:45:25;3.03;;;1.60;;
16478;SDS011;8350;52.316;10.530;2023-07-20T01:47:52;1.65;;;1.20;;
16478;SDS011;8350;52.316;10.530;2023-07-20T01:50:27;1.85;;;1.75;;
16478;SDS011;8350;52.316;10.530;2023-07-20T01:52:54;1.77;;;1.65;;
16478;SDS011;8350;52.316;10.530;2023-07-20T01:55:21;1.70;;;1.60;;
16478;SDS011;8350;52.316;10.530;2023-07-20T01:57:48;2.00;;;1.55;;
16478;SDS011;8350;52.316;10.530;2023-07-20T02:00:15;1.45;;;1.33;;
16478;SDS011;8350;52.316;10.530;2023-07-20T02:02:44;3.13;;;1.30;;
16478;SDS011;8350;52.316;10.530;2023-07-20T02:05:11;1.95;;;1.60;;
16478;SDS011;8350;52.316;10.530;2023-07-20T02:07:40;1.52;;;1.42;;
16478;SDS011;8350;52.316;10.530;2023-07-20T02:10:07;1.88;;;1.75;;
16478;SDS011;8350;52.316;10.530;2023-07-20T02:12:34;1.60;;;1.50;;
16478;SDS011;8350;52.316;10.530;2023-07-20T02:15:02;1.67;;;1.23;;
16478;SDS011;8350;52.316;10.530;2023-07-20T02:17:29;2.42;;;1.48;;
16478;SDS011;8350;52.316;10.530;2023-07-20T02:19:56;1.55;;;1.27;;
16478;SDS011;8350;52.316;10.530;2023-07-20T02:22:23;1.25;;;1.15;;
16478;SDS011;8350;52.316;10.530;2023-07-20T02:24:52;1.77;;;1.33;;
16478;SDS011;8350;52.316;10.530;2023-07-20T02:27:19;1.33;;;1.20;;
16478;SDS011;8350;52.316;10.530;2023-07-20T02:29:46;1.02;;;1.00;;
16478;SDS011;8350;52.316;10.530;2023-07-20T02:32:12;1.33;;;1.23;;
16478;SDS011;8350;52.316;10.530;2023-07-20T02:34:39;1.42;;;1.33;;
16478;SDS011;8350;52.316;10.530;2023-07-20T02:37:12;1.30;;;1.20;;
16478;SDS011;8350;52.316;10.530;2023-07-20T02:39:39;1.80;;;1.27;;
16478;SDS011;8350;52.316;10.530;2023-07-20T02:42:08;1.33;;;1.23;;
16478;SDS011;8350;52.316;10.530;2023-07-20T02:44:35;1.38;;;1.27;;
16478;SDS011;8350;52.316;10.530;2023-07-20T02:47:02;1.48;;;1.15;;
16478;SDS011;8350;52.316;10.530;2023-07-20T02:49:29;1.80;;;1.20;;
16478;SDS011;8350;52.316;10.530;2023-07-20T02:51:56;1.58;;;1.40;;
16478;SDS011;8350;52.316;10.530;2023-07-20T02:54:25;1.30;;;1.20;;
16478;SDS011;8350;52.316;10.530;2023-07-20T02:56:52;1.58;;;1.48;;
16478;SDS011;8350;52.316;10.530;2023-07-20T02:59:21;1.30;;;1.27;;
16478;SDS011;8350;52.316;10.530;2023-07-20T03:01:49;3.05;;;1.70;;
16478;SDS011;8350;52.316;10.530;2023-07-20T03:04:15;1.33;;;1.23;;
16478;SDS011;8350;52.316;10.530;2023-07-20T03:06:42;1.88;;;1.30;;
16478;SDS011;8350;52.316;10.530;2023-07-20T03:09:09;1.48;;;1.10;;
16478;SDS011;8350;52.316;10.530;2023-07-20T03:11:36;1.40;;;1.20;;
16478;SDS011;8350;52.316;10.530;2023-07-20T03:14:03;1.52;;;1.40;;
16478;SDS011;8350;52.316;10.530;2023-07-20T03:16:32;1.85;;;1.30;;
16478;SDS011;8350;52.316;10.530;2023-07-20T03:18:59;1.95;;;1.63;;
16478;SDS011;8350;52.316;10.530;2023-07-20T03:21:26;1.40;;;1.27;;
16478;SDS011;8350;52.316;10.530;2023-07-20T03:23:55;1.60;;;1.50;;
16478;SDS011;8350;52.316;10.530;2023-07-20T03:26:23;1.35;;;1.20;;
16478;SDS011;8350;52.316;10.530;2023-07-20T03:28:50;1.40;;;1.30;;
16478;SDS011;8350;52.316;10.530;2023-07-20T03:31:18;2.83;;;1.45;;
16478;SDS011;8350;52.316;10.530;2023-07-20T03:33:46;1.42;;;1.30;;
16478;SDS011;8350;52.316;10.530;2023-07-20T03:36:13;1.30;;;1.20;;
16478;SDS011;8350;52.316;10.530;2023-07-20T03:38:40;2.08;;;1.27;;
16478;SDS011;8350;52.316;10.530;2023-07-20T03:41:07;1.30;;;1.20;;
16478;SDS011;8350;52.316;10.530;2023-07-20T03:43:34;1.35;;;1.10;;
16478;SDS011;8350;52.316;10.530;2023-07-20T03:46:01;1.40;;;1.30;;
16478;SDS011;8350;52.316;10.530;2023-07-20T03:48:34;1.10;;;1.10;;
16478;SDS011;8350;52.316;10.530;2023-07-20T03:51:02;1.25;;;1.15;;
16478;SDS011;8350;52.316;10.530;2023-07-20T03:53:29;1.27;;;1.17;;
16478;SDS011;8350;52.316;10.530;2023-07-20T03:55:57;1.35;;;1.20;;
16478;SDS011;8350;52.316;10.530;2023-07-20T03:58:24;1.40;;;1.27;;
16478;SDS011;8350;52.316;10.530;2023-07-20T04:00:51;1.60;;;1.50;;
16478;SDS011;8350;52.316;10.530;2023-07-20T04:03:18;1.52;;;1.42;;
16478;SDS011;8350;52.316;10.530;2023-07-20T04:05:46;1.40;;;1.25;;
16478;SDS011;8350;52.316;10.530;2023-07-20T04:08:14;1.40;;;1.30;;
16478;SDS011;8350;52.316;10.530;2023-07-20T04:10:43;2.17;;;1.20;;
16478;SDS011;8350;52.316;10.530;2023-07-20T04:13:10;1.13;;;1.10;;
16478;SDS011;8350;52.316;10.530;2023-07-20T04:15:37;1.27;;;1.17;;
16478;SDS011;8350;52.316;10.530;2023-07-20T04:18:04;1.25;;;1.15;;
16478;SDS011;8350;52.316;10.530;2023-07-20T04:20:31;1.55;;;1.45;;
16478;SDS011;8350;52.316;10.530;2023-07-20T04:22:58;1.58;;;1.38;;
16478;SDS011;8350;52.316;10.530;2023-07-20T04:25:26;1.40;;;1.20;;
16478;SDS011;8350;52.316;10.530;2023-07-20T04:27:53;1.92;;;1.20;;
16478;SDS011;8350;52.316;10.530;2023-07-20T04:30:20;1.45;;;1.33;;
16478;SDS011;8350;52.316;10.530;2023-07-20T04:32:50;1.50;;;1.40;;
16478;SDS011;8350;52.316;10.530;2023-07-20T04:35:17;1.70;;;1.42;;
16478;SDS011;8350;52.316;10.530;2023-07-20T04:38:05;1.30;;;1.20;;
16478;SDS011;8350;52.316;10.530;2023-07-20T04:40:36;1.20;;;1.10;;
16478;SDS011;8350;52.316;10.530;2023-07-20T04:43:03;1.10;;;1.00;;
16478;SDS011;8350;52.316;10.530;2023-07-20T04:45:30;1.20;;;1.10;;
16478;SDS011;8350;52.316;10.530;2023-07-20T04:47:57;1.27;;;1.17;;
16478;SDS011;8350;52.316;10.530;2023-07-20T04:50:24;1.70;;;1.10;;
16478;SDS011;8350;52.316;10.530;2023-07-20T04:52:51;1.48;;;1.30;;
16478;SDS011;8350;52.316;10.530;2023-07-20T04:55:18;1.40;;;1.30;;
16478;SDS011;8350;52.316;10.530;2023-07-20T04:57:47;1.83;;;1.10;;
16478;SDS011;8350;52.316;10.530;2023-07-20T05:00:15;1.40;;;1.30;;
16478;SDS011;8350;52.316;10.530;2023-07-20T05:02:43;1.30;;;1.17;;
16478;SDS011;8350;52.316;10.530;2023-07-20T05:05:14;2.20;;;1.40;;
16478;SDS011;8350;52.316;10.530;2023-07-20T05:07:41;4.32;;;1.38;;
16478;SDS011;8350;52.316;10.530;2023-07-20T05:10:08;1.63;;;1.40;;
16478;SDS011;8350;52.316;10.530;2023-07-20T05:12:35;1.63;;;1.25;;
16478;SDS011;8350;52.316;10.530;2023-07-20T05:15:04;1.55;;;1.40;;
16478;SDS011;8350;52.316;10.530;2023-07-20T05:17:31;1.88;;;1.38;;
16478;SDS011;8350;52.316;10.530;2023-07-20T05:19:58;1.40;;;1.30;;
16478;SDS011;8350;52.316;10.530;2023-07-20T05:22:25;1.77;;;1.20;;
16478;SDS011;8350;52.316;10.530;2023-07-20T05:24:55;1.67;;;1.58;;
16478;SDS011;8350;52.316;10.530;2023-07-20T05:27:22;2.60;;;1.90;;
16478;SDS011;8350;52.316;10.530;2023-07-20T05:29:49;1.75;;;1.58;;
16478;SDS011;8350;52.316;10.530;2023-07-20T05:32:18;1.70;;;1.58;;
16478;SDS011;8350;52.316;10.530;2023-07-20T05:34:45;1.42;;;1.20;;
16478;SDS011;8350;52.316;10.530;2023-07-20T05:37:12;1.85;;;1.75;;
16478;SDS011;8350;52.316;10.530;2023-07-20T05:39:38;2.30;;;1.63;;
16478;SDS011;8350;52.316;10.530;2023-07-20T05:42:05;2.65;;;1.98;;
16478;SDS011;8350;52.316;10.530;2023-07-20T05:44:32;2.00;;;1.38;;
16478;SDS011;8350;52.316;10.530;2023-07-20T05:46:59;4.30;;;2.13;;
16478;SDS011;8350;52.316;10.530;2023-07-20T05:49:29;2.85;;;1.58;;
16478;SDS011;8350;52.316;10.530;2023-07-20T05:51:56;2.03;;;1.67;;
16478;SDS011;8350;52.316;10.530;2023-07-20T05:54:23;2.35;;;1.50;;
16478;SDS011;8350;52.316;10.530;2023-07-20T05:56:50;4.22;;;1.52;;
16478;SDS011;8350;52.316;10.530;2023-07-20T05:59:17;1.80;;;1.50;;
16478;SDS011;8350;52.316;10.530;2023-07-20T06:01:45;3.97;;;1.90;;
16478;SDS011;8350;52.316;10.530;2023-07-20T06:04:13;2.00;;;1.60;;
16478;SDS011;8350;52.316;10.530;2023-07-20T06:06:42;2.15;;;1.60;;
16478;SDS011;8350;52.316;10.530;2023-07-20T06:09:09;1.92;;;1.83;;
16478;SDS011;8350;52.316;10.530;2023-07-20T06:11:37;2.30;;;1.70;;
16478;SDS011;8350;52.316;10.530;2023-07-20T06:14:04;1.85;;;1.75;;
16478;SDS011;8350;52.316;10.530;2023-07-20T06:16:31;2.17;;;1.73;;
16478;SDS011;8350;52.316;10.530;2023-07-20T06:19:00;2.80;;;1.52;;
16478;SDS011;8350;52.316;10.530;2023-07-20T06:21:27;2.28;;;1.45;;
16478;SDS011;8350;52.316;10.530;2023-07-20T06:23:56;2.35;;;1.90;;
16478;SDS011;8350;52.316;10.530;2023-07-20T06:26:24;2.20;;;2.05;;
16478;SDS011;8350;52.316;10.530;2023-07-20T06:28:51;5.05;;;2.58;;
16478;SDS011;8350;52.316;10.530;2023-07-20T06:31:18;2.60;;;2.40;;
16478;SDS011;8350;52.316;10.530;2023-07-20T06:33:45;2.90;;;2.70;;
16478;SDS011;8350;52.316;10.530;2023-07-20T06:36:12;2.40;;;2.20;;
16478;SDS011;8350;52.316;10.530;2023-07-20T06:38:39;4.20;;;2.67;;
16478;SDS011;8350;52.316;10.530;2023-07-20T06:41:07;3.35;;;2.85;;
16478;SDS011;8350;52.316;10.530;2023-07-20T06:43:34;4.88;;;3.38;;
16478;SDS011;8350;52.316;10.530;2023-07-20T06:46:01;3.50;;;3.20;;
16478;SDS011;8350;52.316;10.530;2023-07-20T06:48:29;4.90;;;3.45;;
16478;SDS011;8350;52.316;10.530;2023-07-20T06:50:58;5.38;;;3.60;;
16478;SDS011;8350;52.316;10.530;2023-07-20T06:53:26;3.97;;;3.50;;
16478;SDS011;8350;52.316;10.530;2023-07-20T06:55:53;4.38;;;3.92;;
16478;SDS011;8350;52.316;10.530;2023-07-20T06:58:23;5.50;;;4.47;;
16478;SDS011;8350;52.316;10.530;2023-07-20T07:00:50;5.38;;;4.60;;
16478;SDS011;8350;52.316;10.530;2023-07-20T07:03:18;5.13;;;4.65;;
16478;SDS011;8350;52.316;10.530;2023-07-20T07:05:46;5.60;;;4.97;;
16478;SDS011;8350;52.316;10.530;2023-07-20T07:08:13;4.90;;;4.50;;
16478;SDS011;8350;52.316;10.530;2023-07-20T07:10:40;4.90;;;4.50;;
16478;SDS011;8350;52.316;10.530;2023-07-20T07:13:07;5.07;;;4.57;;
16478;SDS011;8350;52.316;10.530;2023-07-20T07:15:39;5.75;;;5.25;;
16478;SDS011;8350;52.316;10.530;2023-07-20T07:18:06;5.65;;;5.15;;
16478;SDS011;8350;52.316;10.530;2023-07-20T07:20:33;4.60;;;4.20;;
16478;SDS011;8350;52.316;10.530;2023-07-20T07:23:00;4.32;;;3.80;;
16478;SDS011;8350;52.316;10.530;2023-07-20T07:25:28;4.20;;;3.90;;
16478;SDS011;8350;52.316;10.530;2023-07-20T07:27:59;3.65;;;3.45;;
16478;SDS011;8350;52.316;10.530;2023-07-20T07:30:26;2.03;;;1.90;;
16478;SDS011;8350;52.316;10.530;2023-07-20T07:32:54;1.50;;;1.40;;
16478;SDS011;8350;52.316;10.530;2023-07-20T07:35:21;2.00;;;1.80;;
16478;SDS011;8350;52.316;10.530;2023-07-20T07:37:48;1.30;;;1.20;;
16478;SDS011;8350;52.316;10.530;2023-07-20T07:40:15;1.25;;;1.15;;
16478;SDS011;8350;52.316;10.530;2023-07-20T07:42:43;0.90;;;0.90;;
16478;SDS011;8350;52.316;10.530;2023-07-20T07:45:10;1.00;;;0.95;;
16478;SDS011;8350;52.316;10.530;2023-07-20T07:47:38;0.80;;;0.75;;
16478;SDS011;8350;52.316;10.530;2023-07-20T07:50:07;0.90;;;0.90;;
16478;SDS011;8350;52.316;10.530;2023-07-20T07:52:35;1.38;;;1.00;;
16478;SDS011;8350;52.316;10.530;2023-07-20T07:55:02;0.90;;;0.90;;
16478;SDS011;8350;52.316;10.530;2023-07-20T07:57:29;1.20;;;1.17;;
16478;SDS011;8350;52.316;10.530;2023-07-20T07:59:56;1.00;;;1.00;;
16478;SDS011;8350;52.316;10.530;2023-07-20T08:02:23;2.03;;;1.30;;
16478;SDS011;8350;52.316;10.530;2023-07-20T08:04:50;1.38;;;1.23;;
16478;SDS011;8350;52.316;10.530;2023-07-20T08:07:18;1.40;;;1.30;;
16478;SDS011;8350;52.316;10.530;2023-07-20T08:09:46;1.23;;;1.10;;
16478;SDS011;8350;52.316;10.530;2023-07-20T08:12:12;0.90;;;0.90;;
16478;SDS011;8350;52.316;10.530;2023-07-20T08:14:42;1.25;;;1.15;;
16478;SDS011;8350;52.316;10.530;2023-07-20T08:17:09;1.20;;;1.15;;
16478;SDS011;8350;52.316;10.530;2023-07-20T08:19:36;3.20;;;1.20;;
16478;SDS011;8350;52.316;10.530;2023-07-20T08:22:07;1.00;;;1.00;;
16478;SDS011;8350;52.316;10.530;2023-07-20T08:24:38;0.85;;;0.85;;
16478;SDS011;8350;52.316;10.530;2023-07-20T08:27:07;1.58;;;0.80;;
16478;SDS011;8350;52.316;10.530;2023-07-20T08:29:34;1.05;;;0.68;;
16478;SDS011;8350;52.316;10.530;2023-07-20T08:32:02;1.10;;;1.00;;
16478;SDS011;8350;52.316;10.530;2023-07-20T08:34:43;1.92;;;1.02;;
16478;SDS011;8350;52.316;10.530;2023-07-20T08:37:10;1.92;;;0.90;;
16478;SDS011;8350;52.316;10.530;2023-07-20T08:39:38;1.33;;;0.70;;
16478;SDS011;8350;52.316;10.530;2023-07-20T08:42:06;0.60;;;0.60;;
16478;SDS011;8350;52.316;10.530;2023-07-20T08:44:33;0.88;;;0.60;;
16478;SDS011;8350;52.316;10.530;2023-07-20T08:47:00;0.82;;;0.77;;
16478;SDS011;8350;52.316;10.530;2023-07-20T08:49:29;1.05;;;0.80;;
16478;SDS011;8350;52.316;10.530;2023-07-20T08:51:57;1.10;;;0.70;;
16478;SDS011;8350;52.316;10.530;2023-07-20T08:54:29;1.73;;;0.90;;
16478;SDS011;8350;52.316;10.530;2023-07-20T08:57:01;0.75;;;0.60;;
16478;SDS011;8350;52.316;10.530;2023-07-20T08:59:34;0.60;;;0.60;;
16478;SDS011;8350;52.316;10.530;2023-07-20T09:02:04;0.65;;;0.65;;
16478;SDS011;8350;52.316;10.530;2023-07-20T09:04:31;0.60;;;0.60;;
16478;SDS011;8350;52.316;10.530;2023-07-20T09:06:59;0.65;;;0.60;;
16478;SDS011;8350;52.316;10.530;2023-07-20T09:09:26;1.15;;;0.65;;
16478;SDS011;8350;52.316;10.530;2023-07-20T09:11:53;1.05;;;0.60;;
16478;SDS011;8350;52.316;10.530;2023-07-20T09:14:21;0.65;;;0.55;;
16478;SDS011;8350;52.316;10.530;2023-07-20T09:16:50;0.60;;;0.60;;
16478;SDS011;8350;52.316;10.530;2023-07-20T09:19:19;1.70;;;0.70;;
16478;SDS011;8350;52.316;10.530;2023-07-20T09:21:47;1.70;;;0.50;;
16478;SDS011;8350;52.316;10.530;2023-07-20T09:24:16;0.82;;;0.68;;
16478;SDS011;8350;52.316;10.530;2023-07-20T09:26:46;0.43;;;0.40;;
16478;SDS011;8350;52.316;10.530;2023-07-20T09:29:16;1.10;;;0.55;;
16478;SDS011;8350;52.316;10.530;2023-07-20T09:31:50;1.20;;;0.70;;
16478;SDS011;8350;52.316;10.530;2023-07-20T09:34:25;1.15;;;0.40;;
16478;SDS011;8350;52.316;10.530;2023-07-20T09:36:52;0.95;;;0.40;;
16478;SDS011;8350;52.316;10.530;2023-07-20T09:39:19;0.47;;;0.47;;
16478;SDS011;8350;52.316;10.530;2023-07-20T09:41:46;0.50;;;0.45;;
16478;SDS011;8350;52.316;10.530;2023-07-20T09:44:14;0.82;;;0.60;;
16478;SDS011;8350;52.316;10.530;2023-07-20T09:46:41;1.52;;;0.50;;
16478;SDS011;8350;52.316;10.530;2023-07-20T09:49:11;0.82;;;0.50;;
16478;SDS011;8350;52.316;10.530;2023-07-20T09:51:38;1.15;;;0.70;;
16478;SDS011;8350;52.316;10.530;2023-07-20T09:54:07;0.85;;;0.50;;
16478;SDS011;8350;52.316;10.530;2023-07-20T09:56:34;0.65;;;0.50;;
16478;SDS011;8350;52.316;10.530;2023-07-20T09:59:01;1.75;;;0.50;;
16478;SDS011;8350;52.316;10.530;2023-07-20T10:01:29;0.50;;;0.40;;
16478;SDS011;8350;52.316;10.530;2023-07-20T10:03:59;1.17;;;0.40;;
16478;SDS011;8350;52.316;10.530;2023-07-20T10:06:32;0.40;;;0.30;;
16478;SDS011;8350;52.316;10.530;2023-07-20T10:09:01;1.55;;;0.65;;
16478;SDS011;8350;52.316;10.530;2023-07-20T10:11:31;0.38;;;0.30;;
16478;SDS011;8350;52.316;10.530;2023-07-20T10:14:03;1.02;;;0.50;;
16478;SDS011;8350;52.316;10.530;2023-07-20T10:16:32;1.02;;;0.50;;
16478;SDS011;8350;52.316;10.530;2023-07-20T10:19:03;0.40;;;0.40;;
16478;SDS011;8350;52.316;10.530;2023-07-20T10:21:37;1.42;;;0.45;;
16478;SDS011;8350;52.316;10.530;2023-07-20T10:24:08;0.32;;;0.25;;
16478;SDS011;8350;52.316;10.530;2023-07-20T10:26:36;0.68;;;0.50;;
16478;SDS011;8350;52.316;10.530;2023-07-20T10:29:03;0.90;;;0.50;;
16478;SDS011;8350;52.316;10.530;2023-07-20T10:31:31;0.90;;;0.50;;
16478;SDS011;8350;52.316;10.530;2023-07-20T10:33:59;0.45;;;0.30;;
16478;SDS011;8350;52.316;10.530;2023-07-20T10:36:27;1.75;;;0.40;;
16478;SDS011;8350;52.316;10.530;2023-07-20T10:38:56;0.65;;;0.38;;
16478;SDS011;8350;52.316;10.530;2023-07-20T10:41:27;0.40;;;0.40;;
16478;SDS011;8350;52.316;10.530;2023-07-20T10:43:58;0.80;;;0.35;;
16478;SDS011;8350;52.316;10.530;2023-07-20T10:46:33;0.80;;;0.32;;
16478;SDS011;8350;52.316;10.530;2023-07-20T10:49:01;1.98;;;0.30;;
16478;SDS011;8350;52.316;10.530;2023-07-20T10:51:30;1.08;;;0.50;;
16478;SDS011;8350;52.316;10.530;2023-07-20T10:54:08;0.70;;;0.40;;
16478;SDS011;8350;52.316;10.530;2023-07-20T10:56:35;1.40;;;0.65;;
16478;SDS011;8350;52.316;10.530;2023-07-20T10:59:04;2.15;;;0.90;;
16478;SDS011;8350;52.316;10.530;2023-07-20T11:01:45;1.77;;;0.70;;
16478;SDS011;8350;52.316;10.530;2023-07-20T11:04:14;1.10;;;0.63;;
16478;SDS011;8350;52.316;10.530;2023-07-20T11:06:43;1.65;;;0.47;;
16478;SDS011;8350;52.316;10.530;2023-07-20T11:09:13;1.92;;;0.60;;
16478;SDS011;8350;52.316;10.530;2023-07-20T11:11:41;1.63;;;0.55;;
16478;SDS011;8350;52.316;10.530;2023-07-20T11:14:09;0.82;;;0.70;;
16478;SDS011;8350;52.316;10.530;2023-07-20T11:16:37;0.60;;;0.60;;
16478;SDS011;8350;52.316;10.530;2023-07-20T11:19:12;1.00;;;0.45;;
16478;SDS011;8350;52.316;10.530;2023-07-20T11:21:42;0.45;;;0.43;;
16478;SDS011;8350;52.316;10.530;2023-07-20T11:24:10;1.42;;;0.45;;
16478;SDS011;8350;52.316;10.530;2023-07-20T11:26:46;1.63;;;0.70;;
16478;SDS011;8350;52.316;10.530;2023-07-20T11:29:15;1.13;;;0.50;;
16478;SDS011;8350;52.316;10.530;2023-07-20T11:31:44;2.17;;;0.70;;
16478;SDS011;8350;52.316;10.530;2023-07-20T11:34:12;1.63;;;0.50;;
16478;SDS011;8350;52.316;10.530;2023-07-20T11:36:41;1.00;;;0.50;;
16478;SDS011;8350;52.316;10.530;2023-07-20T11:39:09;0.98;;;0.40;;
16478;SDS011;8350;52.316;10.530;2023-07-20T11:41:36;0.68;;;0.50;;
16478;SDS011;8350;52.316;10.530;2023-07-20T11:44:06;1.30;;;0.50;;
16478;SDS011;8350;52.316;10.530;2023-07-20T11:46:38;0.80;;;0.43;;
16478;SDS011;8350;52.316;10.530;2023-07-20T11:49:05;1.50;;;0.50;;
16478;SDS011;8350;52.316;10.530;2023-07-20T11:51:35;0.73;;;0.50;;
16478;SDS011;8350;52.316;10.530;2023-07-20T11:54:03;1.30;;;0.50;;
16478;SDS011;8350;52.316;10.530;2023-07-20T11:56:31;2.03;;;0.47;;
16478;SDS011;8350;52.316;10.530;2023-07-20T11:58:58;1.55;;;0.50;;
16478;SDS011;8350;52.316;10.530;2023-07-20T12:01:29;0.85;;;0.40;;
16478;SDS011;8350;52.316;10.530;2023-07-20T12:03:59;2.30;;;0.50;;
16478;SDS011;8350;52.316;10.530;2023-07-20T12:06:30;0.85;;;0.43;;
16478;SDS011;8350;52.316;10.530;2023-07-20T12:08:58;0.65;;;0.35;;
16478;SDS011;8350;52.316;10.530;2023-07-20T12:11:32;1.10;;;0.60;;
16478;SDS011;8350;52.316;10.530;2023-07-20T12:14:00;0.70;;;0.40;;
16478;SDS011;8350;52.316;10.530;2023-07-20T12:16:29;1.73;;;0.50;;
16478;SDS011;8350;52.316;10.530;2023-07-20T12:18:59;0.68;;;0.57;;
16478;SDS011;8350;52.316;10.530;2023-07-20T12:21:27;0.82;;;0.40;;
16478;SDS011;8350;52.316;10.530;2023-07-20T12:23:55;1.02;;;0.60;;
16478;SDS011;8350;52.316;10.530;2023-07-20T12:26:23;0.60;;;0.60;;
16478;SDS011;8350;52.316;10.530;2023-07-20T12:28:52;1.23;;;0.52;;
16478;SDS011;8350;52.316;10.530;2023-07-20T12:31:19;1.65;;;0.60;;
16478;SDS011;8350;52.316;10.530;2023-07-20T12:33:51;1.70;;;0.63;;
16478;SDS011;8350;52.316;10.530;2023-07-20T12:36:18;1.00;;;0.52;;
16478;SDS011;8350;52.316;10.530;2023-07-20T12:38:45;1.23;;;0.50;;
16478;SDS011;8350;52.316;10.530;2023-07-20T12:41:13;1.45;;;0.70;;
16478;SDS011;8350;52.316;10.530;2023-07-20T12:43:40;1.23;;;0.60;;
16478;SDS011;8350;52.316;10.530;2023-07-20T12:46:07;1.02;;;0.52;;
16478;SDS011;8350;52.316;10.530;2023-07-20T12:48:35;2.03;;;0.50;;
16478;SDS011;8350;52.316;10.530;2023-07-20T12:51:04;1.77;;;0.50;;
16478;SDS011;8350;52.316;10.530;2023-07-20T12:53:32;2.00;;;0.60;;
16478;SDS011;8350;52.316;10.530;2023-07-20T12:55:59;0.73;;;0.60;;
16478;SDS011;8350;52.316;10.530;2023-07-20T12:58:26;1.50;;;0.60;;
16478;SDS011;8350;52.316;10.530;2023-07-20T13:00:53;1.83;;;0.50;;
16478;SDS011;8350;52.316;10.530;2023-07-20T13:03:21;0.70;;;0.50;;
16478;SDS011;8350;52.316;10.530;2023-07-20T13:08:24;2.75;;;0.60;;
16478;SDS011;8350;52.316;10.530;2023-07-20T13:10:52;1.33;;;0.40;;
16478;SDS011;8350;52.316;10.530;2023-07-20T13:13:19;2.35;;;0.70;;
16478;SDS011;8350;52.316;10.530;2023-07-20T13:15:46;3.15;;;0.80;;
16478;SDS011;8350;52.316;10.530;2023-07-20T13:18:13;1.02;;;0.60;;
16478;SDS011;8350;52.316;10.530;2023-07-20T13:20:40;0.70;;;0.45;;
16478;SDS011;8350;52.316;10.530;2023-07-20T13:23:07;0.85;;;0.60;;
16478;SDS011;8350;52.316;10.530;2023-07-20T13:25:35;2.00;;;0.77;;
16478;SDS011;8350;52.316;10.530;2023-07-20T13:28:02;1.50;;;0.60;;
16478;SDS011;8350;52.316;10.530;2023-07-20T13:30:30;3.00;;;0.60;;
16478;SDS011;8350;52.316;10.530;2023-07-20T13:32:57;1.98;;;0.60;;
16478;SDS011;8350;52.316;10.530;2023-07-20T13:35:24;0.98;;;0.50;;
16478;SDS011;8350;52.316;10.530;2023-07-20T13:37:51;3.05;;;0.95;;
16478;SDS011;8350;52.316;10.530;2023-07-20T13:40:18;0.68;;;0.60;;
16478;SDS011;8350;52.316;10.530;2023-07-20T13:42:46;0.75;;;0.70;;
16478;SDS011;8350;52.316;10.530;2023-07-20T13:45:13;1.63;;;0.50;;
16478;SDS011;8350;52.316;10.530;2023-07-20T13:47:40;0.73;;;0.52;;
16478;SDS011;8350;52.316;10.530;2023-07-20T13:50:07;1.85;;;0.80;;
16478;SDS011;8350;52.316;10.530;2023-07-20T13:52:35;1.10;;;0.70;;
16478;SDS011;8350;52.316;10.530;2023-07-20T13:55:03;1.05;;;0.85;;
16478;SDS011;8350;52.316;10.530;2023-07-20T13:57:30;1.15;;;0.63;;
16478;SDS011;8350;52.316;10.530;2023-07-20T13:59:59;1.88;;;0.70;;
16478;SDS011;8350;52.316;10.530;2023-07-20T14:02:27;1.95;;;0.60;;
16478;SDS011;8350;52.316;10.530;2023-07-20T14:04:54;2.15;;;0.80;;
16478;SDS011;8350;52.316;10.530;2023-07-20T14:07:22;2.88;;;0.95;;
16478;SDS011;8350;52.316;10.530;2023-07-20T14:09:49;0.90;;;0.70;;
16478;SDS011;8350;52.316;10.530;2023-07-20T14:12:16;1.08;;;0.90;;
16478;SDS011;8350;52.316;10.530;2023-07-20T14:14:43;1.30;;;0.68;;
16478;SDS011;8350;52.316;10.530;2023-07-20T14:17:11;1.30;;;0.80;;
16478;SDS011;8350;52.316;10.530;2023-07-20T14:19:38;2.28;;;1.05;;
16478;SDS011;8350;52.316;10.530;2023-07-20T14:22:14;5.35;;;0.95;;
16478;SDS011;8350;52.316;10.530;2023-07-20T14:24:41;1.70;;;0.98;;
16478;SDS011;8350;52.316;10.530;2023-07-20T14:27:08;1.17;;;0.60;;
16478;SDS011;8350;52.316;10.530;2023-07-20T14:29:36;1.95;;;0.75;;
16478;SDS011;8350;52.316;10.530;2023-07-20T14:32:03;1.05;;;0.60;;
16478;SDS011;8350;52.316;10.530;2023-07-20T14:34:34;2.45;;;0.70;;
16478;SDS011;8350;52.316;10.530;2023-07-20T14:37:01;0.75;;;0.60;;
16478;SDS011;8350;52.316;10.530;2023-07-20T14:39:29;3.45;;;0.57;;
16478;SDS011;8350;52.316;10.530;2023-07-20T14:41:56;0.75;;;0.68;;
16478;SDS011;8350;52.316;10.530;2023-07-20T14:44:23;0.70;;;0.70;;
16478;SDS011;8350;52.316;10.530;2023-07-20T14:46:50;1.80;;;0.80;;
16478;SDS011;8350;52.316;10.530;2023-07-20T14:49:17;1.52;;;1.05;;
16478;SDS011;8350;52.316;10.530;2023-07-20T14:51:46;1.42;;;0.93;;
16478;SDS011;8350;52.316;10.530;2023-07-20T14:54:16;2.00;;;1.35;;
16478;SDS011;8350;52.316;10.530;2023-07-20T14:56:48;1.13;;;0.98;;
16478;SDS011;8350;52.316;10.530;2023-07-20T14:59:17;1.60;;;1.00;;
16478;SDS011;8350;52.316;10.530;2023-07-20T15:01:45;1.42;;;0.90;;
16478;SDS011;8350;52.316;10.530;2023-07-20T15:04:12;1.70;;;1.00;;